sensor_id;sensor_type;location;lat;lon;timestamp;P1;durP1;ratioP1;P2;durP2;ratioP2
16516;SDS011;8371;52.272;9.746;2023-04-07T00:00:40;2.83;;;2.73;;
16516;SDS011;8371;52.272;9.746;2023-04-07T00:03:06;2.70;;;2.60;;
16516;SDS011;8371;52.272;9.746;2023-04-07T00:05:32;2.80;;;2.70;;
16516;SDS011;8371;52.272;9.746;2023-04-07T00:07:57;2.93;;;2.83;;
16516;SDS011;8371;52.272;9.746;2023-04-07T00:10:23;2.73;;;2.63;;
16516;SDS011;8371;52.272;9.746;2023-04-07T00:12:50;3.27;;;3.10;;
16516;SDS011;8371;52.272;9.746;2023-04-07T00:15:16;3.30;;;3.20;;
16516;SDS011;8371;52.272;9.746;2023-04-07T00:17:41;3.37;;;3.17;;
16516;SDS011;8371;52.272;9.746;2023-04-07T00:20:07;3.13;;;3.03;;
16516;SDS011;8371;52.272;9.746;2023-04-07T00:22:33;3.73;;;3.60;;
16516;SDS011;8371;52.272;9.746;2023-04-07T00:24:59;3.73;;;3.53;;
16516;SDS011;8371;52.272;9.746;2023-04-07T00:27:25;4.17;;;3.97;;
16516;SDS011;8371;52.272;9.746;2023-04-07T00:29:50;3.40;;;3.30;;
16516;SDS011;8371;52.272;9.746;2023-04-07T00:32:18;4.00;;;3.73;;
16516;SDS011;8371;52.272;9.746;2023-04-07T00:34:43;3.63;;;3.50;;
16516;SDS011;8371;52.272;9.746;2023-04-07T00:37:09;3.70;;;3.53;;
16516;SDS011;8371;52.272;9.746;2023-04-07T00:39:35;3.97;;;3.77;;
16516;SDS011;8371;52.272;9.746;2023-04-07T00:42:02;3.50;;;3.40;;
16516;SDS011;8371;52.272;9.746;2023-04-07T00:44:29;3.53;;;3.33;;
16516;SDS011;8371;52.272;9.746;2023-04-07T00:46:54;3.40;;;3.30;;
16516;SDS011;8371;52.272;9.746;2023-04-07T00:49:20;3.47;;;3.37;;
16516;SDS011;8371;52.272;9.746;2023-04-07T00:51:46;3.40;;;3.30;;
16516;SDS011;8371;52.272;9.746;2023-04-07T00:54:12;3.03;;;2.93;;
16516;SDS011;8371;52.272;9.746;2023-04-07T00:56:37;3.50;;;3.37;;
16516;SDS011;8371;52.272;9.746;2023-04-07T00:59:03;3.27;;;3.07;;
16516;SDS011;8371;52.272;9.746;2023-04-07T01:01:30;2.90;;;2.80;;
16516;SDS011;8371;52.272;9.746;2023-04-07T01:04:04;3.00;;;2.90;;
16516;SDS011;8371;52.272;9.746;2023-04-07T01:06:32;3.37;;;3.27;;
16516;SDS011;8371;52.272;9.746;2023-04-07T01:09:01;2.80;;;2.70;;
16516;SDS011;8371;52.272;9.746;2023-04-07T01:11:36;3.20;;;3.10;;
16516;SDS011;8371;52.272;9.746;2023-04-07T01:14:19;3.30;;;3.20;;
16516;SDS011;8371;52.272;9.746;2023-04-07T01:16:50;3.63;;;3.50;;
16516;SDS011;8371;52.272;9.746;2023-04-07T01:19:33;3.57;;;3.37;;
16516;SDS011;8371;52.272;9.746;2023-04-07T01:22:19;3.37;;;3.27;;
16516;SDS011;8371;52.272;9.746;2023-04-07T01:24:53;3.07;;;2.90;;
16516;SDS011;8371;52.272;9.746;2023-04-07T01:30:35;3.40;;;3.27;;
16516;SDS011;8371;52.272;9.746;2023-04-07T01:33:03;3.17;;;3.00;;
16516;SDS011;8371;52.272;9.746;2023-04-07T01:35:31;3.53;;;3.33;;
16516;SDS011;8371;52.272;9.746;2023-04-07T01:37:59;3.10;;;3.00;;
16516;SDS011;8371;52.272;9.746;2023-04-07T01:40:26;3.33;;;3.13;;
16516;SDS011;8371;52.272;9.746;2023-04-07T01:42:54;3.30;;;3.20;;
16516;SDS011;8371;52.272;9.746;2023-04-07T01:45:21;3.53;;;3.33;;
16516;SDS011;8371;52.272;9.746;2023-04-07T01:47:48;3.43;;;3.23;;
16516;SDS011;8371;52.272;9.746;2023-04-07T01:50:15;3.63;;;3.43;;
16516;SDS011;8371;52.272;9.746;2023-04-07T01:52:41;3.27;;;3.17;;
16516;SDS011;8371;52.272;9.746;2023-04-07T01:55:07;2.90;;;2.80;;
16516;SDS011;8371;52.272;9.746;2023-04-07T01:57:34;2.87;;;2.77;;
16516;SDS011;8371;52.272;9.746;2023-04-07T02:00:00;2.27;;;2.20;;
16516;SDS011;8371;52.272;9.746;2023-04-07T02:02:27;2.23;;;2.17;;
16516;SDS011;8371;52.272;9.746;2023-04-07T02:04:53;2.30;;;2.20;;
16516;SDS011;8371;52.272;9.746;2023-04-07T02:10:06;2.70;;;2.60;;
16516;SDS011;8371;52.272;9.746;2023-04-07T02:12:35;2.70;;;2.60;;
16516;SDS011;8371;52.272;9.746;2023-04-07T02:15:03;2.70;;;2.60;;
16516;SDS011;8371;52.272;9.746;2023-04-07T02:17:31;2.43;;;2.40;;
16516;SDS011;8371;52.272;9.746;2023-04-07T02:19:59;2.57;;;2.47;;
16516;SDS011;8371;52.272;9.746;2023-04-07T02:22:26;2.77;;;2.67;;
16516;SDS011;8371;52.272;9.746;2023-04-07T02:24:53;2.40;;;2.30;;
16516;SDS011;8371;52.272;9.746;2023-04-07T02:27:18;2.53;;;2.43;;
16516;SDS011;8371;52.272;9.746;2023-04-07T02:29:45;2.53;;;2.43;;
16516;SDS011;8371;52.272;9.746;2023-04-07T02:32:10;2.30;;;2.20;;
16516;SDS011;8371;52.272;9.746;2023-04-07T02:34:36;2.63;;;2.53;;
16516;SDS011;8371;52.272;9.746;2023-04-07T02:37:02;2.80;;;2.70;;
16516;SDS011;8371;52.272;9.746;2023-04-07T02:39:27;3.20;;;2.73;;
16516;SDS011;8371;52.272;9.746;2023-04-07T02:41:53;2.47;;;2.37;;
16516;SDS011;8371;52.272;9.746;2023-04-07T02:44:19;2.40;;;2.30;;
16516;SDS011;8371;52.272;9.746;2023-04-07T02:46:44;2.57;;;2.47;;
16516;SDS011;8371;52.272;9.746;2023-04-07T02:49:10;2.47;;;2.37;;
16516;SDS011;8371;52.272;9.746;2023-04-07T02:51:36;2.07;;;1.97;;
16516;SDS011;8371;52.272;9.746;2023-04-07T02:54:01;2.50;;;2.40;;
16516;SDS011;8371;52.272;9.746;2023-04-07T02:56:27;2.90;;;2.80;;
16516;SDS011;8371;52.272;9.746;2023-04-07T02:58:53;2.50;;;2.40;;
16516;SDS011;8371;52.272;9.746;2023-04-07T03:01:18;3.07;;;2.97;;
16516;SDS011;8371;52.272;9.746;2023-04-07T03:03:44;2.90;;;2.80;;
16516;SDS011;8371;52.272;9.746;2023-04-07T03:06:12;2.60;;;2.50;;
16516;SDS011;8371;52.272;9.746;2023-04-07T03:08:38;2.83;;;2.73;;
16516;SDS011;8371;52.272;9.746;2023-04-07T03:11:04;3.37;;;3.20;;
16516;SDS011;8371;52.272;9.746;2023-04-07T03:13:29;2.90;;;2.80;;
16516;SDS011;8371;52.272;9.746;2023-04-07T03:15:56;2.80;;;2.70;;
16516;SDS011;8371;52.272;9.746;2023-04-07T03:18:22;2.93;;;2.83;;
16516;SDS011;8371;52.272;9.746;2023-04-07T03:20:48;2.40;;;2.30;;
16516;SDS011;8371;52.272;9.746;2023-04-07T03:23:13;2.53;;;2.43;;
16516;SDS011;8371;52.272;9.746;2023-04-07T03:25:39;2.57;;;2.47;;
16516;SDS011;8371;52.272;9.746;2023-04-07T03:28:05;2.40;;;2.30;;
16516;SDS011;8371;52.272;9.746;2023-04-07T03:30:31;2.30;;;2.20;;
16516;SDS011;8371;52.272;9.746;2023-04-07T03:32:57;2.07;;;1.97;;
16516;SDS011;8371;52.272;9.746;2023-04-07T03:35:23;2.60;;;2.50;;
16516;SDS011;8371;52.272;9.746;2023-04-07T03:37:48;2.27;;;2.20;;
16516;SDS011;8371;52.272;9.746;2023-04-07T03:40:14;2.67;;;2.57;;
16516;SDS011;8371;52.272;9.746;2023-04-07T03:42:40;2.07;;;2.03;;
16516;SDS011;8371;52.272;9.746;2023-04-07T03:45:07;2.50;;;2.40;;
16516;SDS011;8371;52.272;9.746;2023-04-07T03:47:33;3.27;;;3.17;;
16516;SDS011;8371;52.272;9.746;2023-04-07T03:49:59;2.80;;;2.70;;
16516;SDS011;8371;52.272;9.746;2023-04-07T03:52:25;2.87;;;2.73;;
16516;SDS011;8371;52.272;9.746;2023-04-07T03:54:51;3.10;;;3.00;;
16516;SDS011;8371;52.272;9.746;2023-04-07T03:57:17;2.60;;;2.50;;
16516;SDS011;8371;52.272;9.746;2023-04-07T03:59:42;2.17;;;2.07;;
16516;SDS011;8371;52.272;9.746;2023-04-07T04:02:08;2.00;;;1.90;;
16516;SDS011;8371;52.272;9.746;2023-04-07T04:04:34;2.30;;;2.30;;
16516;SDS011;8371;52.272;9.746;2023-04-07T04:06:59;2.10;;;2.07;;
16516;SDS011;8371;52.272;9.746;2023-04-07T04:09:25;2.00;;;1.90;;
16516;SDS011;8371;52.272;9.746;2023-04-07T04:11:51;2.07;;;2.03;;
16516;SDS011;8371;52.272;9.746;2023-04-07T04:14:17;2.07;;;2.07;;
16516;SDS011;8371;52.272;9.746;2023-04-07T04:16:42;2.40;;;2.30;;
16516;SDS011;8371;52.272;9.746;2023-04-07T04:19:08;2.30;;;2.10;;
16516;SDS011;8371;52.272;9.746;2023-04-07T04:21:34;2.50;;;2.40;;
16516;SDS011;8371;52.272;9.746;2023-04-07T04:23:59;2.60;;;2.50;;
16516;SDS011;8371;52.272;9.746;2023-04-07T04:26:25;2.37;;;2.27;;
16516;SDS011;8371;52.272;9.746;2023-04-07T04:28:51;2.67;;;2.47;;
16516;SDS011;8371;52.272;9.746;2023-04-07T04:31:17;3.03;;;2.93;;
16516;SDS011;8371;52.272;9.746;2023-04-07T04:33:43;3.00;;;2.90;;
16516;SDS011;8371;52.272;9.746;2023-04-07T04:36:08;3.43;;;3.33;;
16516;SDS011;8371;52.272;9.746;2023-04-07T04:38:34;3.13;;;3.03;;
16516;SDS011;8371;52.272;9.746;2023-04-07T04:41:00;3.60;;;3.40;;
16516;SDS011;8371;52.272;9.746;2023-04-07T04:43:26;3.90;;;3.73;;
16516;SDS011;8371;52.272;9.746;2023-04-07T04:45:51;3.63;;;3.53;;
16516;SDS011;8371;52.272;9.746;2023-04-07T04:48:17;3.43;;;3.33;;
16516;SDS011;8371;52.272;9.746;2023-04-07T04:50:43;3.90;;;3.60;;
16516;SDS011;8371;52.272;9.746;2023-04-07T04:53:08;3.43;;;3.33;;
16516;SDS011;8371;52.272;9.746;2023-04-07T04:55:35;3.23;;;3.13;;
16516;SDS011;8371;52.272;9.746;2023-04-07T04:58:01;3.20;;;3.10;;
16516;SDS011;8371;52.272;9.746;2023-04-07T05:00:26;3.03;;;2.93;;
16516;SDS011;8371;52.272;9.746;2023-04-07T05:02:52;2.80;;;2.70;;
16516;SDS011;8371;52.272;9.746;2023-04-07T05:05:19;2.80;;;2.70;;
16516;SDS011;8371;52.272;9.746;2023-04-07T05:07:45;3.27;;;3.17;;
16516;SDS011;8371;52.272;9.746;2023-04-07T05:10:10;3.67;;;3.53;;
16516;SDS011;8371;52.272;9.746;2023-04-07T05:12:36;3.30;;;3.20;;
16516;SDS011;8371;52.272;9.746;2023-04-07T05:15:02;3.20;;;3.10;;
16516;SDS011;8371;52.272;9.746;2023-04-07T05:17:28;2.57;;;2.47;;
16516;SDS011;8371;52.272;9.746;2023-04-07T05:19:53;2.93;;;2.83;;
16516;SDS011;8371;52.272;9.746;2023-04-07T05:22:19;2.53;;;2.43;;
16516;SDS011;8371;52.272;9.746;2023-04-07T05:24:45;2.87;;;2.77;;
16516;SDS011;8371;52.272;9.746;2023-04-07T05:27:11;3.33;;;3.23;;
16516;SDS011;8371;52.272;9.746;2023-04-07T05:29:37;3.63;;;3.40;;
16516;SDS011;8371;52.272;9.746;2023-04-07T05:32:03;3.20;;;3.10;;
16516;SDS011;8371;52.272;9.746;2023-04-07T05:34:30;2.93;;;2.83;;
16516;SDS011;8371;52.272;9.746;2023-04-07T05:36:56;3.43;;;3.33;;
16516;SDS011;8371;52.272;9.746;2023-04-07T05:39:22;3.27;;;3.17;;
16516;SDS011;8371;52.272;9.746;2023-04-07T05:41:48;2.70;;;2.60;;
16516;SDS011;8371;52.272;9.746;2023-04-07T05:44:13;3.03;;;2.93;;
16516;SDS011;8371;52.272;9.746;2023-04-07T05:46:39;3.43;;;3.23;;
16516;SDS011;8371;52.272;9.746;2023-04-07T05:49:05;3.37;;;3.27;;
16516;SDS011;8371;52.272;9.746;2023-04-07T05:51:30;3.33;;;3.23;;
16516;SDS011;8371;52.272;9.746;2023-04-07T05:53:57;3.50;;;3.40;;
16516;SDS011;8371;52.272;9.746;2023-04-07T05:56:25;3.17;;;3.07;;
16516;SDS011;8371;52.272;9.746;2023-04-07T05:58:51;6.70;;;3.67;;
16516;SDS011;8371;52.272;9.746;2023-04-07T06:01:18;3.77;;;3.57;;
16516;SDS011;8371;52.272;9.746;2023-04-07T06:03:43;4.93;;;3.37;;
16516;SDS011;8371;52.272;9.746;2023-04-07T06:06:09;3.77;;;3.67;;
16516;SDS011;8371;52.272;9.746;2023-04-07T06:08:35;3.43;;;3.30;;
16516;SDS011;8371;52.272;9.746;2023-04-07T06:11:00;3.97;;;3.87;;
16516;SDS011;8371;52.272;9.746;2023-04-07T06:13:26;4.90;;;4.67;;
16516;SDS011;8371;52.272;9.746;2023-04-07T06:15:53;4.30;;;4.10;;
16516;SDS011;8371;52.272;9.746;2023-04-07T06:18:21;4.37;;;4.17;;
16516;SDS011;8371;52.272;9.746;2023-04-07T06:20:47;4.73;;;4.33;;
16516;SDS011;8371;52.272;9.746;2023-04-07T06:23:12;5.53;;;5.33;;
16516;SDS011;8371;52.272;9.746;2023-04-07T06:25:38;5.40;;;5.20;;
16516;SDS011;8371;52.272;9.746;2023-04-07T06:28:04;5.47;;;5.27;;
16516;SDS011;8371;52.272;9.746;2023-04-07T06:30:30;5.83;;;5.57;;
16516;SDS011;8371;52.272;9.746;2023-04-07T06:32:55;5.10;;;4.90;;
16516;SDS011;8371;52.272;9.746;2023-04-07T06:35:21;6.10;;;5.80;;
16516;SDS011;8371;52.272;9.746;2023-04-07T06:37:46;6.03;;;5.83;;
16516;SDS011;8371;52.272;9.746;2023-04-07T06:40:12;6.83;;;6.53;;
16516;SDS011;8371;52.272;9.746;2023-04-07T06:42:38;6.13;;;5.77;;
16516;SDS011;8371;52.272;9.746;2023-04-07T06:45:04;6.33;;;6.03;;
16516;SDS011;8371;52.272;9.746;2023-04-07T06:47:30;6.57;;;6.27;;
16516;SDS011;8371;52.272;9.746;2023-04-07T06:49:55;7.30;;;6.90;;
16516;SDS011;8371;52.272;9.746;2023-04-07T06:52:21;7.77;;;7.20;;
16516;SDS011;8371;52.272;9.746;2023-04-07T06:54:47;5.93;;;5.63;;
16516;SDS011;8371;52.272;9.746;2023-04-07T06:57:13;6.30;;;6.00;;
16516;SDS011;8371;52.272;9.746;2023-04-07T06:59:39;7.17;;;6.87;;
16516;SDS011;8371;52.272;9.746;2023-04-07T07:02:05;7.53;;;7.23;;
16516;SDS011;8371;52.272;9.746;2023-04-07T07:04:31;6.10;;;5.87;;
16516;SDS011;8371;52.272;9.746;2023-04-07T07:06:58;6.33;;;6.03;;
16516;SDS011;8371;52.272;9.746;2023-04-07T07:09:24;5.83;;;5.63;;
16516;SDS011;8371;52.272;9.746;2023-04-07T07:11:50;5.80;;;5.50;;
16516;SDS011;8371;52.272;9.746;2023-04-07T07:14:16;6.03;;;5.63;;
16516;SDS011;8371;52.272;9.746;2023-04-07T07:16:42;6.97;;;6.67;;
16516;SDS011;8371;52.272;9.746;2023-04-07T07:19:07;5.57;;;5.27;;
16516;SDS011;8371;52.272;9.746;2023-04-07T07:21:34;6.03;;;5.77;;
16516;SDS011;8371;52.272;9.746;2023-04-07T07:23:59;6.33;;;5.83;;
16516;SDS011;8371;52.272;9.746;2023-04-07T07:26:25;5.97;;;5.77;;
16516;SDS011;8371;52.272;9.746;2023-04-07T07:28:51;5.97;;;5.67;;
16516;SDS011;8371;52.272;9.746;2023-04-07T07:31:17;5.47;;;5.23;;
16516;SDS011;8371;52.272;9.746;2023-04-07T07:33:42;7.30;;;7.00;;
16516;SDS011;8371;52.272;9.746;2023-04-07T07:36:10;7.20;;;6.90;;
16516;SDS011;8371;52.272;9.746;2023-04-07T07:38:37;6.33;;;6.13;;
16516;SDS011;8371;52.272;9.746;2023-04-07T07:41:03;6.00;;;5.60;;
16516;SDS011;8371;52.272;9.746;2023-04-07T07:43:30;5.73;;;5.43;;
16516;SDS011;8371;52.272;9.746;2023-04-07T07:45:56;5.20;;;5.00;;
16516;SDS011;8371;52.272;9.746;2023-04-07T07:48:22;5.07;;;4.87;;
16516;SDS011;8371;52.272;9.746;2023-04-07T07:50:47;6.00;;;5.70;;
16516;SDS011;8371;52.272;9.746;2023-04-07T07:53:13;5.80;;;5.60;;
16516;SDS011;8371;52.272;9.746;2023-04-07T07:55:39;5.57;;;5.37;;
16516;SDS011;8371;52.272;9.746;2023-04-07T07:58:05;5.93;;;5.70;;
16516;SDS011;8371;52.272;9.746;2023-04-07T08:00:30;7.17;;;6.87;;
16516;SDS011;8371;52.272;9.746;2023-04-07T08:02:56;6.57;;;6.27;;
16516;SDS011;8371;52.272;9.746;2023-04-07T08:05:22;6.83;;;6.43;;
16516;SDS011;8371;52.272;9.746;2023-04-07T08:07:47;5.93;;;5.63;;
16516;SDS011;8371;52.272;9.746;2023-04-07T08:10:13;6.00;;;5.70;;
16516;SDS011;8371;52.272;9.746;2023-04-07T08:12:39;6.40;;;6.00;;
16516;SDS011;8371;52.272;9.746;2023-04-07T08:15:05;7.63;;;6.97;;
16516;SDS011;8371;52.272;9.746;2023-04-07T08:17:33;6.63;;;6.27;;
16516;SDS011;8371;52.272;9.746;2023-04-07T08:19:59;6.40;;;6.10;;
16516;SDS011;8371;52.272;9.746;2023-04-07T08:22:25;6.43;;;6.13;;
16516;SDS011;8371;52.272;9.746;2023-04-07T08:24:51;7.77;;;7.37;;
16516;SDS011;8371;52.272;9.746;2023-04-07T08:27:16;6.60;;;6.30;;
16516;SDS011;8371;52.272;9.746;2023-04-07T08:29:42;8.10;;;7.70;;
16516;SDS011;8371;52.272;9.746;2023-04-07T08:32:08;7.37;;;6.93;;
16516;SDS011;8371;52.272;9.746;2023-04-07T08:34:33;7.30;;;6.90;;
16516;SDS011;8371;52.272;9.746;2023-04-07T08:36:59;7.03;;;6.73;;
16516;SDS011;8371;52.272;9.746;2023-04-07T08:39:25;8.00;;;6.73;;
16516;SDS011;8371;52.272;9.746;2023-04-07T08:41:52;7.20;;;6.90;;
16516;SDS011;8371;52.272;9.746;2023-04-07T08:44:19;7.17;;;6.73;;
16516;SDS011;8371;52.272;9.746;2023-04-07T08:46:47;6.80;;;6.33;;
16516;SDS011;8371;52.272;9.746;2023-04-07T08:49:15;7.00;;;6.70;;
16516;SDS011;8371;52.272;9.746;2023-04-07T08:51:45;6.47;;;6.17;;
16516;SDS011;8371;52.272;9.746;2023-04-07T08:54:13;6.23;;;5.83;;
16516;SDS011;8371;52.272;9.746;2023-04-07T08:56:41;7.30;;;6.70;;
16516;SDS011;8371;52.272;9.746;2023-04-07T08:59:08;6.17;;;5.87;;
16516;SDS011;8371;52.272;9.746;2023-04-07T09:01:35;6.70;;;6.30;;
16516;SDS011;8371;52.272;9.746;2023-04-07T09:04:02;6.43;;;6.07;;
16516;SDS011;8371;52.272;9.746;2023-04-07T09:06:29;5.77;;;5.47;;
16516;SDS011;8371;52.272;9.746;2023-04-07T09:09:01;5.57;;;5.33;;
16516;SDS011;8371;52.272;9.746;2023-04-07T09:11:25;5.97;;;5.67;;
16516;SDS011;8371;52.272;9.746;2023-04-07T09:13:51;5.20;;;5.00;;
16516;SDS011;8371;52.272;9.746;2023-04-07T09:16:17;5.77;;;5.57;;
16516;SDS011;8371;52.272;9.746;2023-04-07T09:18:43;5.43;;;5.23;;
16516;SDS011;8371;52.272;9.746;2023-04-07T09:21:09;5.43;;;5.23;;
16516;SDS011;8371;52.272;9.746;2023-04-07T09:23:36;5.53;;;5.23;;
16516;SDS011;8371;52.272;9.746;2023-04-07T09:26:23;5.37;;;5.10;;
16516;SDS011;8371;52.272;9.746;2023-04-07T09:28:54;6.43;;;5.67;;
16516;SDS011;8371;52.272;9.746;2023-04-07T09:31:22;5.63;;;5.43;;
16516;SDS011;8371;52.272;9.746;2023-04-07T09:33:50;7.13;;;6.53;;
16516;SDS011;8371;52.272;9.746;2023-04-07T09:36:17;6.07;;;5.83;;
16516;SDS011;8371;52.272;9.746;2023-04-07T09:38:43;6.07;;;5.40;;
16516;SDS011;8371;52.272;9.746;2023-04-07T09:41:17;5.23;;;4.93;;
16516;SDS011;8371;52.272;9.746;2023-04-07T09:43:45;5.27;;;5.07;;
16516;SDS011;8371;52.272;9.746;2023-04-07T09:46:10;4.70;;;4.50;;
16516;SDS011;8371;52.272;9.746;2023-04-07T09:48:37;4.10;;;3.90;;
16516;SDS011;8371;52.272;9.746;2023-04-07T09:51:04;4.70;;;4.50;;
16516;SDS011;8371;52.272;9.746;2023-04-07T09:53:45;4.67;;;4.47;;
16516;SDS011;8371;52.272;9.746;2023-04-07T09:56:13;4.60;;;4.40;;
16516;SDS011;8371;52.272;9.746;2023-04-07T09:58:40;4.90;;;4.70;;
16516;SDS011;8371;52.272;9.746;2023-04-07T10:01:08;5.23;;;4.93;;
16516;SDS011;8371;52.272;9.746;2023-04-07T10:03:35;5.83;;;5.37;;
16516;SDS011;8371;52.272;9.746;2023-04-07T10:06:01;4.80;;;4.60;;
16516;SDS011;8371;52.272;9.746;2023-04-07T10:08:29;4.60;;;4.37;;
16516;SDS011;8371;52.272;9.746;2023-04-07T10:10:56;5.90;;;5.27;;
16516;SDS011;8371;52.272;9.746;2023-04-07T10:13:23;5.23;;;5.00;;
16516;SDS011;8371;52.272;9.746;2023-04-07T10:15:50;5.90;;;5.60;;
16516;SDS011;8371;52.272;9.746;2023-04-07T10:18:16;5.10;;;4.90;;
16516;SDS011;8371;52.272;9.746;2023-04-07T10:20:45;4.80;;;4.43;;
16516;SDS011;8371;52.272;9.746;2023-04-07T10:26:09;5.20;;;4.77;;
16516;SDS011;8371;52.272;9.746;2023-04-07T10:28:36;4.57;;;4.37;;
16516;SDS011;8371;52.272;9.746;2023-04-07T10:31:05;4.67;;;4.37;;
16516;SDS011;8371;52.272;9.746;2023-04-07T10:33:43;4.50;;;4.30;;
16516;SDS011;8371;52.272;9.746;2023-04-07T10:36:11;3.93;;;3.80;;
16516;SDS011;8371;52.272;9.746;2023-04-07T10:38:37;4.60;;;4.40;;
16516;SDS011;8371;52.272;9.746;2023-04-07T10:41:30;3.80;;;3.70;;
16516;SDS011;8371;52.272;9.746;2023-04-07T10:44:02;4.77;;;4.57;;
16516;SDS011;8371;52.272;9.746;2023-04-07T10:46:52;4.90;;;4.43;;
16516;SDS011;8371;52.272;9.746;2023-04-07T10:49:11;4.53;;;4.33;;
16516;SDS011;8371;52.272;9.746;2023-04-07T10:51:38;4.27;;;4.07;;
16516;SDS011;8371;52.272;9.746;2023-04-07T10:54:23;4.20;;;4.00;;
16516;SDS011;8371;52.272;9.746;2023-04-07T10:59:35;4.67;;;4.47;;
16516;SDS011;8371;52.272;9.746;2023-04-07T11:04:45;5.30;;;5.10;;
16516;SDS011;8371;52.272;9.746;2023-04-07T11:07:12;5.33;;;5.03;;
16516;SDS011;8371;52.272;9.746;2023-04-07T11:09:41;5.63;;;5.43;;
16516;SDS011;8371;52.272;9.746;2023-04-07T11:12:07;5.10;;;4.80;;
16516;SDS011;8371;52.272;9.746;2023-04-07T11:14:33;5.43;;;5.13;;
16516;SDS011;8371;52.272;9.746;2023-04-07T11:17:01;5.00;;;4.70;;
16516;SDS011;8371;52.272;9.746;2023-04-07T11:19:27;5.17;;;4.87;;
16516;SDS011;8371;52.272;9.746;2023-04-07T11:22:12;4.53;;;4.33;;
16516;SDS011;8371;52.272;9.746;2023-04-07T11:24:39;4.80;;;4.50;;
16516;SDS011;8371;52.272;9.746;2023-04-07T11:27:05;5.20;;;4.90;;
16516;SDS011;8371;52.272;9.746;2023-04-07T11:29:33;4.70;;;4.33;;
16516;SDS011;8371;52.272;9.746;2023-04-07T11:31:59;4.63;;;4.43;;
16516;SDS011;8371;52.272;9.746;2023-04-07T11:34:33;4.37;;;4.17;;
16516;SDS011;8371;52.272;9.746;2023-04-07T11:37:19;4.63;;;4.43;;
16516;SDS011;8371;52.272;9.746;2023-04-07T11:39:52;4.70;;;4.50;;
16516;SDS011;8371;52.272;9.746;2023-04-07T11:42:32;5.37;;;5.17;;
16516;SDS011;8371;52.272;9.746;2023-04-07T11:45:00;5.00;;;4.80;;
16516;SDS011;8371;52.272;9.746;2023-04-07T11:50:03;4.73;;;4.53;;
16516;SDS011;8371;52.272;9.746;2023-04-07T11:52:39;5.73;;;5.43;;
16516;SDS011;8371;52.272;9.746;2023-04-07T11:55:19;5.27;;;5.07;;
16516;SDS011;8371;52.272;9.746;2023-04-07T11:57:46;5.40;;;5.17;;
16516;SDS011;8371;52.272;9.746;2023-04-07T12:00:12;5.03;;;4.83;;
16516;SDS011;8371;52.272;9.746;2023-04-07T12:02:38;5.50;;;5.20;;
16516;SDS011;8371;52.272;9.746;2023-04-07T12:05:04;5.03;;;4.80;;
16516;SDS011;8371;52.272;9.746;2023-04-07T12:07:31;5.77;;;5.47;;
16516;SDS011;8371;52.272;9.746;2023-04-07T12:09:57;6.33;;;6.03;;
16516;SDS011;8371;52.272;9.746;2023-04-07T12:12:29;5.60;;;5.30;;
16516;SDS011;8371;52.272;9.746;2023-04-07T12:14:56;5.13;;;4.93;;
16516;SDS011;8371;52.272;9.746;2023-04-07T12:17:22;5.33;;;5.13;;
16516;SDS011;8371;52.272;9.746;2023-04-07T12:19:49;5.17;;;4.97;;
16516;SDS011;8371;52.272;9.746;2023-04-07T12:22:15;5.77;;;5.47;;
16516;SDS011;8371;52.272;9.746;2023-04-07T12:24:41;8.17;;;7.50;;
16516;SDS011;8371;52.272;9.746;2023-04-07T12:27:06;6.57;;;6.17;;
16516;SDS011;8371;52.272;9.746;2023-04-07T12:29:32;5.87;;;5.47;;
16516;SDS011;8371;52.272;9.746;2023-04-07T12:31:59;4.67;;;4.47;;
16516;SDS011;8371;52.272;9.746;2023-04-07T12:34:25;5.67;;;5.47;;
16516;SDS011;8371;52.272;9.746;2023-04-07T12:36:51;5.43;;;5.13;;
16516;SDS011;8371;52.272;9.746;2023-04-07T12:39:17;5.40;;;5.17;;
16516;SDS011;8371;52.272;9.746;2023-04-07T12:41:44;5.47;;;5.27;;
16516;SDS011;8371;52.272;9.746;2023-04-07T12:44:13;6.10;;;5.80;;
16516;SDS011;8371;52.272;9.746;2023-04-07T12:46:40;5.30;;;5.00;;
16516;SDS011;8371;52.272;9.746;2023-04-07T12:49:07;5.33;;;5.13;;
16516;SDS011;8371;52.272;9.746;2023-04-07T12:51:33;5.43;;;5.13;;
16516;SDS011;8371;52.272;9.746;2023-04-07T12:53:59;5.77;;;5.47;;
16516;SDS011;8371;52.272;9.746;2023-04-07T12:56:28;6.27;;;5.97;;
16516;SDS011;8371;52.272;9.746;2023-04-07T12:58:54;6.60;;;6.20;;
16516;SDS011;8371;52.272;9.746;2023-04-07T13:01:20;5.53;;;5.23;;
16516;SDS011;8371;52.272;9.746;2023-04-07T13:03:46;5.83;;;5.60;;
16516;SDS011;8371;52.272;9.746;2023-04-07T13:06:11;5.60;;;5.30;;
16516;SDS011;8371;52.272;9.746;2023-04-07T13:08:38;5.73;;;5.43;;
16516;SDS011;8371;52.272;9.746;2023-04-07T13:11:05;5.27;;;4.97;;
16516;SDS011;8371;52.272;9.746;2023-04-07T13:13:31;5.27;;;4.97;;
16516;SDS011;8371;52.272;9.746;2023-04-07T13:15:57;4.50;;;4.30;;
16516;SDS011;8371;52.272;9.746;2023-04-07T13:18:23;5.10;;;4.90;;
16516;SDS011;8371;52.272;9.746;2023-04-07T13:20:48;4.40;;;4.20;;
16516;SDS011;8371;52.272;9.746;2023-04-07T13:23:14;4.00;;;3.80;;
16516;SDS011;8371;52.272;9.746;2023-04-07T13:25:40;6.10;;;5.60;;
16516;SDS011;8371;52.272;9.746;2023-04-07T13:28:06;5.67;;;5.37;;
16516;SDS011;8371;52.272;9.746;2023-04-07T13:30:32;4.83;;;4.63;;
16516;SDS011;8371;52.272;9.746;2023-04-07T13:32:58;5.23;;;5.00;;
16516;SDS011;8371;52.272;9.746;2023-04-07T13:35:24;6.10;;;5.10;;
16516;SDS011;8371;52.272;9.746;2023-04-07T13:37:49;5.03;;;4.50;;
16516;SDS011;8371;52.272;9.746;2023-04-07T13:40:15;5.00;;;4.80;;
16516;SDS011;8371;52.272;9.746;2023-04-07T13:42:41;4.87;;;4.67;;
16516;SDS011;8371;52.272;9.746;2023-04-07T13:45:07;5.20;;;4.90;;
16516;SDS011;8371;52.272;9.746;2023-04-07T13:47:33;4.73;;;4.53;;
16516;SDS011;8371;52.272;9.746;2023-04-07T13:49:59;4.73;;;4.53;;
16516;SDS011;8371;52.272;9.746;2023-04-07T13:52:26;5.03;;;4.83;;
16516;SDS011;8371;52.272;9.746;2023-04-07T13:54:52;5.47;;;5.07;;
16516;SDS011;8371;52.272;9.746;2023-04-07T13:57:19;5.30;;;5.00;;
16516;SDS011;8371;52.272;9.746;2023-04-07T13:59:45;4.13;;;3.93;;
16516;SDS011;8371;52.272;9.746;2023-04-07T14:02:12;4.07;;;3.87;;
16516;SDS011;8371;52.272;9.746;2023-04-07T14:04:38;3.53;;;3.23;;
16516;SDS011;8371;52.272;9.746;2023-04-07T14:07:04;3.60;;;3.40;;
16516;SDS011;8371;52.272;9.746;2023-04-07T14:09:30;3.30;;;3.07;;
16516;SDS011;8371;52.272;9.746;2023-04-07T14:11:55;2.80;;;2.70;;
16516;SDS011;8371;52.272;9.746;2023-04-07T14:14:22;3.80;;;3.60;;
16516;SDS011;8371;52.272;9.746;2023-04-07T14:16:48;4.00;;;3.80;;
16516;SDS011;8371;52.272;9.746;2023-04-07T14:19:19;3.60;;;3.47;;
16516;SDS011;8371;52.272;9.746;2023-04-07T14:21:48;4.40;;;4.20;;
16516;SDS011;8371;52.272;9.746;2023-04-07T14:24:15;3.33;;;3.23;;
16516;SDS011;8371;52.272;9.746;2023-04-07T14:26:44;3.90;;;3.70;;
16516;SDS011;8371;52.272;9.746;2023-04-07T14:29:11;2.97;;;2.87;;
16516;SDS011;8371;52.272;9.746;2023-04-07T14:31:37;3.40;;;3.30;;
16516;SDS011;8371;52.272;9.746;2023-04-07T14:34:03;4.40;;;4.10;;
16516;SDS011;8371;52.272;9.746;2023-04-07T14:36:29;2.80;;;2.70;;
16516;SDS011;8371;52.272;9.746;2023-04-07T14:38:55;3.70;;;3.50;;
16516;SDS011;8371;52.272;9.746;2023-04-07T14:44:06;3.80;;;3.70;;
16516;SDS011;8371;52.272;9.746;2023-04-07T14:46:32;3.67;;;3.40;;
16516;SDS011;8371;52.272;9.746;2023-04-07T14:48:58;3.20;;;3.10;;
16516;SDS011;8371;52.272;9.746;2023-04-07T14:51:24;3.33;;;3.13;;
16516;SDS011;8371;52.272;9.746;2023-04-07T14:53:50;3.73;;;3.43;;
16516;SDS011;8371;52.272;9.746;2023-04-07T14:56:17;3.40;;;3.30;;
16516;SDS011;8371;52.272;9.746;2023-04-07T14:58:43;3.37;;;3.27;;
16516;SDS011;8371;52.272;9.746;2023-04-07T15:01:09;3.40;;;3.30;;
16516;SDS011;8371;52.272;9.746;2023-04-07T15:03:34;3.63;;;3.47;;
16516;SDS011;8371;52.272;9.746;2023-04-07T15:06:00;3.30;;;3.17;;
16516;SDS011;8371;52.272;9.746;2023-04-07T15:08:26;4.20;;;3.30;;
16516;SDS011;8371;52.272;9.746;2023-04-07T15:10:52;3.50;;;3.40;;
16516;SDS011;8371;52.272;9.746;2023-04-07T15:13:18;3.03;;;2.93;;
16516;SDS011;8371;52.272;9.746;2023-04-07T15:15:43;3.30;;;3.07;;
16516;SDS011;8371;52.272;9.746;2023-04-07T15:18:09;3.23;;;3.13;;